D:gle Sibu — 9VIJ3 — position and weather

sailwx.info

Track history (hours):
 
Tides and Currents Weather Stations Pressure Air Temp Water Temp Dewpoint Dewpoint Depression Visibility Wind Speed Wind Dir Waves Ship Positions

D:gle Sibu

Last reported at 2018-Apr-25 21:29 UTC. Time now 2018-Apr-25 21:50 UTC.
Position N 29°13' W 093°41'.

Length 243 m.

Type: Ship. MMSI: 465862000.

Date/timePositionNaut miles runAvg speedWind from/ knotsBaromVisibWave heightAir tempDewpointWater temp
2018-Apr-25 21:29N 29°13' W 093°41'0 0.0
2018-Apr-25 19:52N 29°13' W 093°41'0 0.0
2018-Apr-25 19:28N 29°13' W 093°41'0 0.0
2018-Apr-25 18:58N 29°13' W 093°41'0 0.0
2018-Apr-25 18:28N 29°13' W 093°41'0 0.0
2018-Apr-25 17:58N 29°13' W 093°41'0 0.0
2018-Apr-25 17:28N 29°13' W 093°41'0 0.0
2018-Apr-25 16:58N 29°13' W 093°41'0 0.0
2018-Apr-25 16:28N 29°13' W 093°41'0 0.0
2018-Apr-25 15:58N 29°13' W 093°41'0 0.0
2018-Apr-25 15:28N 29°13' W 093°41'0 0.0
2018-Apr-25 14:55N 29°13' W 093°41'0 0.0
2018-Apr-25 14:28N 29°13' W 093°41'0 0.0
2018-Apr-25 13:58N 29°13' W 093°41'0 0.0
2018-Apr-25 13:28N 29°13' W 093°41'0 0.1
2018-Apr-25 12:58N 29°13' W 093°41'0 0.2
2018-Apr-25 12:28N 29°13' W 093°41'0 0.2
2018-Apr-25 11:58N 29°13' W 093°41'0 0.1
2018-Apr-25 11:28N 29°13' W 093°41'0 0.0
2018-Apr-25 10:55N 29°13' W 093°41'0 0.1
2018-Apr-25 10:28N 29°13' W 093°41'1 1.4
2018-Apr-25 10:00N 29°13' W 093°41'3 6.2
2018-Apr-25 09:31N 29°10' W 093°40'510.0
2018-Apr-25 09:01N 29°05' W 093°39'510.1
2018-Apr-25 08:30N 28°60' W 093°40'510.2
2018-Apr-25 08:00N 28°54' W 093°40'510.2
2018-Apr-25 07:30N 28°49' W 093°41'510.2
2018-Apr-25 07:00N 28°44' W 093°42'5 9.5
2018-Apr-25 06:30N 28°41' W 093°45'510.7
2018-Apr-25 06:01N 28°38' W 093°51'610.9
2018-Apr-25 05:29N 28°35' W 093°56'511.0
2018-Apr-25 05:00N 28°33' W 094°02'511.0
2018-Apr-25 04:31N 28°30' W 094°07'611.4
2018-Apr-25 04:01N 28°27' W 094°13'510.7
2018-Apr-25 03:30N 28°26' W 094°18'2 2.4
2018-Apr-25 02:43N 28°26' W 094°21'0 0.3
2018-Apr-25 02:30N 28°26' W 094°21'2 1.6
2018-Apr-25 01:26N 28°27' W 094°22'0 0.0
2018-Apr-24 12:12N 28°27' W 094°22'0 0.0
2018-Apr-24 11:43N 28°27' W 094°22'10 0.4
2018-Apr-23 08:30N 28°31' W 094°33'32 3.4
2018-Apr-22 23:03N 28°43' W 093°59'211.0
2018-Apr-22 22:53N 28°43' W 093°57'2210.1
2018-Apr-22 20:43N 28°59' W 093°40'311.5
2018-Apr-22 20:29N 29°01' W 093°40'511.4
2018-Apr-22 20:00N 29°07' W 093°40'510.8
2018-Apr-22 19:29N 29°12' W 093°40'510.1
2018-Apr-22 18:58N 29°18' W 093°39'5 9.9
2018-Apr-22 18:30N 29°22' W 093°40'5 9.9
2018-Apr-22 18:01N 29°27' W 093°40'4 9.0
2018-Apr-22 17:30N 29°31' W 093°42'510.0
2018-Apr-22 17:01N 29°34' W 093°46'5 9.3
2018-Apr-22 16:30N 29°38' W 093°49'4 8.7
2018-Apr-22 16:01N 29°42' W 093°51'4 7.6
2018-Apr-22 15:31N 29°45' W 093°54'4 7.3
2018-Apr-22 15:01N 29°48' W 093°57'3 7.0
2018-Apr-22 14:31N 29°51' W 093°57'3 5.8
2018-Apr-22 14:01N 29°53' W 093°55'3 6.4
2018-Apr-22 13:31N 29°56' W 093°52'3 5.8
2018-Apr-22 13:01N 29°59' W 093°52'3 5.9
2018-Apr-22 12:30N 29°59' W 093°55'2 4.8
2018-Apr-22 12:00N 30°01' W 093°57'1 1.7
2018-Apr-22 11:29N 30°01' W 093°58'0 0.0
2018-Apr-22 11:00N 30°01' W 093°58'0 0.0
2018-Apr-22 10:28N 30°01' W 093°58'0 0.0
2018-Apr-22 09:58N 30°01' W 093°58'0 0.0
2018-Apr-22 09:28N 30°01' W 093°58'0 0.0
2018-Apr-22 08:58N 30°01' W 093°58'0 0.0
2018-Apr-22 08:28N 30°01' W 093°58'0 0.0
2018-Apr-22 07:58N 30°01' W 093°58'0 0.0
2018-Apr-22 07:28N 30°01' W 093°58'0 0.0
2018-Apr-22 06:58N 30°01' W 093°58'0 0.0
2018-Apr-22 06:28N 30°01' W 093°58'0 0.0
2018-Apr-22 05:58N 30°01' W 093°58'0 0.0
2018-Apr-22 05:28N 30°01' W 093°58'0 0.0
2018-Apr-22 04:58N 30°01' W 093°58'0 0.0
2018-Apr-22 04:25N 30°01' W 093°58'0 0.0
2018-Apr-22 03:58N 30°01' W 093°58'0 0.0
2018-Apr-22 03:28N 30°01' W 093°58'0 0.0
2018-Apr-22 02:58N 30°01' W 093°58'0 0.0
2018-Apr-22 02:28N 30°01' W 093°58'0 0.0
2018-Apr-22 01:58N 30°01' W 093°58'0 0.0
2018-Apr-22 01:28N 30°01' W 093°58'0 0.0
2018-Apr-22 00:58N 30°01' W 093°58'0 0.0
2018-Apr-22 00:28N 30°01' W 093°58'0 0.0
2018-Apr-21 23:55N 30°01' W 093°58'0 0.0
2018-Apr-21 23:28N 30°01' W 093°58'0 0.0
2018-Apr-21 22:58N 30°01' W 093°58'0 0.0
2018-Apr-21 22:28N 30°01' W 093°58'0 0.0
2018-Apr-21 21:58N 30°01' W 093°58'0 0.0
2018-Apr-21 21:28N 30°01' W 093°58'0 0.0
2018-Apr-21 20:58N 30°01' W 093°58'0 0.0
2018-Apr-21 20:28N 30°01' W 093°58'0 0.0
2018-Apr-21 19:58N 30°01' W 093°58'0 0.0
2018-Apr-21 19:28N 30°01' W 093°58'0 0.0
2018-Apr-21 18:58N 30°01' W 093°58'0 0.0
2018-Apr-21 18:28N 30°01' W 093°58'0 0.0
2018-Apr-21 17:58N 30°01' W 093°58'0 0.0
2018-Apr-21 17:28N 30°01' W 093°58'0 0.0
2018-Apr-21 16:58N 30°01' W 093°58'0 0.0
2018-Apr-21 16:28N 30°01' W 093°58'0 0.0
2018-Apr-21 15:58N 30°01' W 093°58'0 0.0
2018-Apr-21 15:28N 30°01' W 093°58'0 0.0
2018-Apr-21 14:58N 30°01' W 093°58'0 0.0
2018-Apr-21 14:28N 30°01' W 093°58'0 0.0
2018-Apr-21 13:58N 30°01' W 093°58'0 0.0
2018-Apr-21 13:28N 30°01' W 093°58'0 0.0
2018-Apr-21 12:58N 30°01' W 093°58'0 0.0
2018-Apr-21 12:28N 30°01' W 093°58'0 0.0
2018-Apr-21 11:58N 30°01' W 093°58'0 0.0
2018-Apr-21 11:28N 30°01' W 093°58'0 0.0
2018-Apr-21 10:58N 30°01' W 093°58'0 0.0
2018-Apr-21 10:28N 30°01' W 093°58'0 0.0
2018-Apr-21 09:55N 30°01' W 093°58'0 0.0
2018-Apr-21 09:28N 30°01' W 093°58'0 0.0
2018-Apr-21 08:58N 30°01' W 093°58'0 0.0
2018-Apr-21 08:28N 30°01' W 093°58'0 0.0
2018-Apr-21 07:58N 30°01' W 093°58'0 0.0
2018-Apr-21 07:28N 30°01' W 093°58'0 0.0
2018-Apr-21 06:58N 30°01' W 093°58'0 0.0
2018-Apr-21 06:28N 30°01' W 093°58'0 0.0
2018-Apr-21 05:58N 30°01' W 093°58'0 0.0
2018-Apr-21 05:28N 30°01' W 093°58'0 0.0
2018-Apr-21 04:58N 30°01' W 093°58'0 0.0
2018-Apr-21 04:28N 30°01' W 093°58'0 0.0
2018-Apr-21 03:55N 30°01' W 093°58'0 0.0
2018-Apr-21 03:28N 30°01' W 093°58'0 0.0
2018-Apr-21 02:58N 30°01' W 093°58'0 0.0
2018-Apr-21 02:28N 30°01' W 093°58'0 0.0
2018-Apr-21 01:58N 30°01' W 093°58'0 0.0
2018-Apr-21 01:28N 30°01' W 093°58'0 0.0
2018-Apr-21 00:58N 30°01' W 093°58'0 0.0
2018-Apr-21 00:28N 30°01' W 093°58'0 0.0
2018-Apr-20 23:58N 30°01' W 093°58'0 0.0
2018-Apr-20 23:28N 30°01' W 093°58'0 0.0
2018-Apr-20 22:55N 30°01' W 093°58'0 0.0
2018-Apr-20 22:28N 30°01' W 093°58'0 0.0
2018-Apr-20 21:58N 30°01' W 093°58'0 0.0
2018-Apr-20 21:28N 30°01' W 093°58'0 0.0
2018-Apr-20 20:58N 30°01' W 093°58'0 0.0
2018-Apr-20 20:28N 30°01' W 093°58'0 0.0
2018-Apr-20 19:58N 30°01' W 093°58'0 0.0
2018-Apr-20 19:28N 30°01' W 093°58'0 0.0
2018-Apr-20 18:58N 30°01' W 093°58'0 0.0
2018-Apr-20 18:28N 30°01' W 093°58'0 0.0
2018-Apr-20 17:58N 30°01' W 093°58'0 0.0
2018-Apr-20 17:28N 30°01' W 093°58'0 0.0
2018-Apr-20 16:58N 30°01' W 093°58'0 0.0
2018-Apr-20 16:28N 30°01' W 093°58'0 0.0
2018-Apr-20 15:58N 30°01' W 093°58'0 0.0
2018-Apr-20 15:28N 30°01' W 093°58'0 0.0
2018-Apr-20 14:58N 30°01' W 093°58'0 0.0
2018-Apr-20 14:28N 30°01' W 093°58'0 0.0
2018-Apr-20 13:58N 30°01' W 093°58'0 0.0
2018-Apr-20 13:28N 30°01' W 093°58'0 0.0
2018-Apr-20 12:58N 30°01' W 093°58'0 0.0
2018-Apr-20 12:28N 30°01' W 093°58'0 0.0
2018-Apr-20 11:58N 30°01' W 093°58'0 0.0
2018-Apr-20 11:28N 30°01' W 093°58'0 0.0
2018-Apr-20 10:58N 30°01' W 093°58'0 0.0
2018-Apr-20 10:28N 30°01' W 093°58'0 0.0
2018-Apr-20 09:55N 30°01' W 093°58'0 0.0
2018-Apr-20 09:28N 30°01' W 093°58'0 0.0
2018-Apr-20 08:58N 30°01' W 093°58'0 0.0
2018-Apr-20 08:28N 30°01' W 093°58'0 0.0
2018-Apr-20 07:58N 30°01' W 093°58'0 0.0
2018-Apr-20 07:22N 30°01' W 093°58'0 0.0
2018-Apr-20 06:58N 30°01' W 093°58'0 0.0
2018-Apr-20 06:28N 30°01' W 093°58'0 0.0
2018-Apr-20 05:58N 30°01' W 093°58'0 0.0
2018-Apr-20 05:25N 30°01' W 093°58'0 0.0
2018-Apr-20 04:58N 30°01' W 093°58'0 0.0
2018-Apr-20 04:28N 30°01' W 093°58'0 0.0
2018-Apr-20 03:58N 30°01' W 093°58'0 0.0
2018-Apr-20 03:28N 30°01' W 093°58'0 0.0
2018-Apr-20 02:58N 30°01' W 093°58'0 0.0
2018-Apr-20 02:28N 30°01' W 093°58'0 0.0
2018-Apr-20 01:58N 30°01' W 093°58'0 0.0
2018-Apr-20 01:28N 30°01' W 093°58'0 0.0
2018-Apr-20 00:58N 30°01' W 093°58'0 0.0
2018-Apr-20 00:28N 30°01' W 093°58'0 0.0
2018-Apr-19 23:58N 30°01' W 093°58'0 0.0
2018-Apr-19 23:28N 30°01' W 093°58'0 0.0
2018-Apr-19 22:58N 30°01' W 093°58'0 0.0
2018-Apr-19 22:28N 30°01' W 093°58'0 0.0
2018-Apr-19 21:58N 30°01' W 093°58'0 0.0
2018-Apr-19 21:28N 30°01' W 093°58'0 0.0
2018-Apr-19 20:58N 30°01' W 093°58'0 0.0
2018-Apr-19 20:28N 30°01' W 093°58'0 0.0
2018-Apr-19 19:58N 30°01' W 093°58'0 0.0
2018-Apr-19 19:28N 30°01' W 093°58'0 0.0
2018-Apr-19 18:58N 30°01' W 093°58'0 0.0
2018-Apr-19 18:28N 30°01' W 093°58'0 0.0
2018-Apr-19 17:58N 30°01' W 093°58'0 0.0
2018-Apr-19 17:28N 30°01' W 093°58'0 0.0
2018-Apr-19 16:58N 30°01' W 093°58'0 0.0
2018-Apr-19 16:28N 30°01' W 093°58'0 0.0
2018-Apr-19 15:58N 30°01' W 093°58'0 0.0
2018-Apr-19 15:28N 30°01' W 093°58'0 0.0
2018-Apr-19 14:58N 30°01' W 093°58'0 0.0
2018-Apr-19 14:28N 30°01' W 093°58'0 0.0
2018-Apr-19 13:58N 30°01' W 093°58'0 0.0
2018-Apr-19 13:28N 30°01' W 093°58'0 0.0
2018-Apr-19 12:58N 30°01' W 093°58'0 0.0
2018-Apr-19 12:28N 30°01' W 093°58'0 0.0
2018-Apr-19 11:58N 30°01' W 093°58'0 0.0
2018-Apr-19 11:28N 30°01' W 093°58'0 0.0
2018-Apr-19 10:58N 30°01' W 093°58'0 0.0
2018-Apr-19 10:28N 30°01' W 093°58'0 0.0
2018-Apr-19 09:58N 30°01' W 093°58'0 0.0
2018-Apr-19 09:28N 30°01' W 093°58'0 0.0
2018-Apr-19 08:58N 30°01' W 093°58'0 0.0
2018-Apr-19 08:28N 30°01' W 093°58'0 0.0
2018-Apr-19 07:58N 30°01' W 093°58'0 0.0
2018-Apr-19 07:28N 30°01' W 093°58'0 0.0
2018-Apr-19 06:55N 30°01' W 093°58'0 0.0
2018-Apr-19 06:25N 30°01' W 093°58'0 0.0
2018-Apr-19 05:58N 30°01' W 093°58'0 0.0
2018-Apr-19 05:28N 30°01' W 093°58'0 0.0
2018-Apr-19 04:58N 30°01' W 093°58'0 0.0
2018-Apr-19 04:28N 30°01' W 093°58'0 0.0
2018-Apr-19 03:58N 30°01' W 093°58'0 0.0
2018-Apr-19 03:28N 30°01' W 093°58'0 0.0
2018-Apr-19 02:58N 30°01' W 093°58'0 0.0
2018-Apr-19 02:28N 30°01' W 093°58'0 0.0
2018-Apr-19 01:58N 30°01' W 093°58'0 0.0
2018-Apr-19 01:28N 30°01' W 093°58'0 0.0
2018-Apr-19 00:59N 30°01' W 093°58'0 1.0
2018-Apr-19 00:31N 30°01' W 093°59'1 3.0
2018-Apr-19 00:00N 30°00' W 093°57'3 5.8
2018-Apr-18 23:30N 29°59' W 093°54'3 5.7
2018-Apr-18 23:00N 29°58' W 093°51'3 5.7
2018-Apr-18 22:30N 29°55' W 093°53'4 7.5
2018-Apr-18 22:00N 29°52' W 093°56'3 6.1
2018-Apr-18 21:30N 29°50' W 093°57'4 7.3
2018-Apr-18 21:00N 29°46' W 093°56'4 7.4
2018-Apr-18 20:30N 29°44' W 093°52'3 6.7
2018-Apr-18 20:01N 29°41' W 093°50'5 9.2
2018-Apr-18 19:30N 29°37' W 093°49'510.4
2018-Apr-18 19:00N 29°33' W 093°45'510.7
2018-Apr-18 18:30N 29°29' W 093°40'510.2
2018-Apr-18 18:00N 29°24' W 093°40'3 6.4
2018-Apr-18 17:30N 29°21' W 093°39'2 4.0
2018-Apr-18 17:00N 29°20' W 093°41'1 2.7
2018-Apr-18 16:30N 29°21' W 093°42'0 0.0
2018-Apr-18 16:00N 29°21' W 093°42'0 0.0
2018-Apr-18 15:30N 29°21' W 093°42'0 0.0
2018-Apr-18 15:00N 29°21' W 093°42'0 0.0
2018-Apr-18 14:24N 29°21' W 093°42'0 0.0
2018-Apr-18 13:57N 29°21' W 093°42'0 0.0
2018-Apr-18 13:30N 29°21' W 093°42'0 0.0
2018-Apr-18 12:45N 29°21' W 093°42'0 0.1
2018-Apr-18 12:30N 29°21' W 093°42'0 0.0
2018-Apr-18 11:57N 29°21' W 093°42'0 0.0
2018-Apr-18 11:30N 29°21' W 093°42'0 0.0
2018-Apr-18 11:00N 29°21' W 093°42'0 0.0
2018-Apr-18 10:24N 29°21' W 093°42'0 0.0
2018-Apr-18 10:00N 29°21' W 093°42'0 0.0
2018-Apr-18 09:30N 29°21' W 093°42'0 0.0
2018-Apr-18 09:00N 29°21' W 093°42'0 0.1
2018-Apr-18 08:24N 29°21' W 093°42'0 0.0
2018-Apr-18 07:57N 29°21' W 093°42'0 0.0
2018-Apr-18 07:30N 29°21' W 093°42'0 0.0
2018-Apr-18 06:57N 29°21' W 093°42'0 0.0
2018-Apr-18 06:30N 29°21' W 093°42'0 0.0
2018-Apr-18 05:00N 29°21' W 093°42'0 0.0
2018-Apr-18 04:27N 29°21' W 093°42'0 0.0
2018-Apr-18 04:00N 29°21' W 093°42'0 0.0
2018-Apr-18 03:30N 29°21' W 093°42'0 0.0
2018-Apr-18 02:57N 29°21' W 093°42'0 0.0
2018-Apr-18 02:30N 29°21' W 093°42'0 0.0
2018-Apr-18 02:00N 29°21' W 093°42'0 0.0
2018-Apr-18 01:30N 29°21' W 093°42'0 0.0
2018-Apr-18 01:00N 29°21' W 093°42'0 0.0
2018-Apr-18 00:30N 29°21' W 093°42'0 0.0
2018-Apr-18 00:00N 29°21' W 093°42'0 0.1
2018-Apr-17 23:30N 29°21' W 093°42'0 0.0
2018-Apr-17 23:00N 29°21' W 093°42'0 0.0
2018-Apr-17 22:30N 29°21' W 093°42'0 0.0
2018-Apr-17 22:00N 29°21' W 093°42'0 0.0
2018-Apr-17 21:30N 29°21' W 093°42'0 0.1
2018-Apr-17 21:00N 29°21' W 093°42'0 0.1
2018-Apr-17 20:30N 29°21' W 093°42'0 0.0
2018-Apr-17 20:00N 29°21' W 093°42'0 0.2
2018-Apr-17 19:30N 29°21' W 093°42'0 0.0
2018-Apr-17 19:00N 29°21' W 093°42'0 0.0
2018-Apr-17 18:30N 29°21' W 093°42'0 0.0
2018-Apr-17 17:54N 29°21' W 093°42'0 0.0
2018-Apr-17 17:30N 29°21' W 093°42'0 0.0
2018-Apr-17 17:00N 29°21' W 093°42'0 0.0
2018-Apr-17 16:30N 29°21' W 093°42'0 0.0
2018-Apr-17 16:00N 29°21' W 093°42'0 0.0
2018-Apr-17 15:27N 29°21' W 093°42'0 0.0
2018-Apr-17 15:00N 29°21' W 093°42'0 0.0
2018-Apr-17 14:30N 29°21' W 093°42'0 0.0
2018-Apr-17 14:00N 29°21' W 093°42'0 0.0
2018-Apr-17 13:27N 29°21' W 093°42'0 0.0
2018-Apr-17 12:57N 29°21' W 093°42'0 0.0
2018-Apr-17 12:30N 29°21' W 093°42'0 0.0
2018-Apr-17 12:00N 29°21' W 093°42'0 0.0
2018-Apr-17 11:30N 29°21' W 093°42'0 0.0
2018-Apr-17 11:00N 29°21' W 093°42'0 0.0
2018-Apr-17 10:30N 29°21' W 093°42'0 0.0
2018-Apr-17 10:00N 29°21' W 093°42'0 0.0
2018-Apr-17 09:30N 29°21' W 093°42'0 0.0
2018-Apr-17 09:00N 29°21' W 093°42'0 0.0
2018-Apr-17 08:27N 29°21' W 093°42'0 0.0
2018-Apr-17 08:00N 29°21' W 093°42'0 0.0
2018-Apr-17 07:30N 29°21' W 093°42'0 0.0
2018-Apr-17 07:00N 29°21' W 093°42'0 0.0
2018-Apr-17 06:30N 29°21' W 093°42'0 0.0
2018-Apr-17 06:00N 29°21' W 093°42'0 0.0
2018-Apr-17 05:30N 29°21' W 093°42'0 0.0
2018-Apr-17 05:00N 29°21' W 093°42'0 0.1
2018-Apr-17 04:30N 29°21' W 093°42'0 0.0
2018-Apr-17 04:00N 29°21' W 093°42'0 0.0
2018-Apr-17 03:30N 29°21' W 093°42'0 0.0
2018-Apr-17 02:57N 29°21' W 093°42'0 0.1
2018-Apr-17 02:30N 29°21' W 093°42'0 0.0
2018-Apr-17 02:00N 29°21' W 093°42'0 0.0
2018-Apr-17 01:30N 29°21' W 093°42'0 0.0
2018-Apr-16 22:33N 29°21' W 093°43'0 0.0
2018-Apr-16 20:00N 29°21' W 093°43'0 0.0
2018-Apr-16 19:27N 29°21' W 093°43'0 0.0
2018-Apr-16 18:57N 29°21' W 093°43'0 0.0
2018-Apr-16 18:30N 29°21' W 093°43'0 0.0
2018-Apr-16 17:54N 29°21' W 093°43'0 0.0
2018-Apr-16 17:27N 29°21' W 093°43'0 0.0
2018-Apr-16 16:57N 29°21' W 093°43'0 0.1
2018-Apr-16 14:12N 29°21' W 093°43'0 0.0
2018-Apr-16 13:54N 29°21' W 093°43'0 0.0
2018-Apr-16 13:30N 29°21' W 093°43'0 0.0
2018-Apr-16 13:00N 29°21' W 093°43'0 0.1
2018-Apr-16 12:30N 29°21' W 093°43'0 0.0
2018-Apr-16 11:57N 29°21' W 093°43'0 0.0
2018-Apr-16 11:30N 29°21' W 093°43'0 0.0
2018-Apr-16 11:00N 29°21' W 093°43'0 0.1
2018-Apr-16 10:30N 29°21' W 093°42'0 0.1
2018-Apr-16 10:00N 29°21' W 093°42'0 0.0
2018-Apr-16 09:30N 29°21' W 093°42'0 0.0
2018-Apr-16 09:00N 29°21' W 093°42'0 0.0
2018-Apr-16 08:30N 29°21' W 093°42'0 0.0
2018-Apr-16 08:00N 29°21' W 093°42'0 0.0
2018-Apr-16 07:30N 29°21' W 093°42'0 0.0
2018-Apr-16 07:00N 29°21' W 093°42'0 0.0
2018-Apr-16 06:30N 29°21' W 093°42'0 0.0
2018-Apr-16 05:57N 29°21' W 093°42'0 0.0
2018-Apr-16 05:30N 29°21' W 093°42'0 0.0
2018-Apr-16 05:00N 29°21' W 093°42'0 0.0
2018-Apr-16 04:30N 29°21' W 093°42'0 0.0
2018-Apr-16 04:00N 29°21' W 093°42'0 0.0
2018-Apr-16 03:30N 29°21' W 093°42'0 0.0
2018-Apr-16 03:00N 29°21' W 093°42'0 0.0
2018-Apr-16 02:27N 29°21' W 093°42'0 0.0
2018-Apr-16 02:00N 29°21' W 093°42'0 0.0
2018-Apr-16 01:30N 29°21' W 093°42'0 0.2
2018-Apr-16 00:57N 29°21' W 093°42'1 3.3
2018-Apr-16 00:30N 29°20' W 093°41'5 6.3
2018-Apr-15 23:47N 29°16' W 093°39'3 8.7
2018-Apr-15 23:28N 29°13' W 093°40'  
Track history (hours):
 
Tides and Currents Weather Stations Pressure Air Temp Water Temp Dewpoint Dewpoint Depression Visibility Wind Speed Wind Dir Waves Ship Positions

D:gle Sibu

Last reported at 2018-Apr-25 21:29 UTC. Time now 2018-Apr-25 21:50 UTC.
Position N 29°13' W 093°41'.

Length 243 m.

Type: Ship. MMSI: 465862000.

Date/timePositionNaut miles runAvg speedWind from/ knotsBaromVisibWave heightAir tempDewpointWater temp
2018-Apr-25 21:29N 29°13' W 093°41'0 0.0
2018-Apr-25 19:52N 29°13' W 093°41'0 0.0
2018-Apr-25 19:28N 29°13' W 093°41'0 0.0
2018-Apr-25 18:58N 29°13' W 093°41'0 0.0
2018-Apr-25 18:28N 29°13' W 093°41'0 0.0
2018-Apr-25 17:58N 29°13' W 093°41'0 0.0
2018-Apr-25 17:28N 29°13' W 093°41'0 0.0
2018-Apr-25 16:58N 29°13' W 093°41'0 0.0
2018-Apr-25 16:28N 29°13' W 093°41'0 0.0
2018-Apr-25 15:58N 29°13' W 093°41'0 0.0
2018-Apr-25 15:28N 29°13' W 093°41'0 0.0
2018-Apr-25 14:55N 29°13' W 093°41'0 0.0
2018-Apr-25 14:28N 29°13' W 093°41'0 0.0
2018-Apr-25 13:58N 29°13' W 093°41'0 0.0
2018-Apr-25 13:28N 29°13' W 093°41'0 0.1
2018-Apr-25 12:58N 29°13' W 093°41'0 0.2
2018-Apr-25 12:28N 29°13' W 093°41'0 0.2
2018-Apr-25 11:58N 29°13' W 093°41'0 0.1
2018-Apr-25 11:28N 29°13' W 093°41'0 0.0
2018-Apr-25 10:55N 29°13' W 093°41'0 0.1
2018-Apr-25 10:28N 29°13' W 093°41'1 1.4
2018-Apr-25 10:00N 29°13' W 093°41'3 6.2
2018-Apr-25 09:31N 29°10' W 093°40'510.0
2018-Apr-25 09:01N 29°05' W 093°39'510.1
2018-Apr-25 08:30N 28°60' W 093°40'510.2
2018-Apr-25 08:00N 28°54' W 093°40'510.2
2018-Apr-25 07:30N 28°49' W 093°41'510.2
2018-Apr-25 07:00N 28°44' W 093°42'5 9.5
2018-Apr-25 06:30N 28°41' W 093°45'510.7
2018-Apr-25 06:01N 28°38' W 093°51'610.9
2018-Apr-25 05:29N 28°35' W 093°56'511.0
2018-Apr-25 05:00N 28°33' W 094°02'511.0
2018-Apr-25 04:31N 28°30' W 094°07'611.4
2018-Apr-25 04:01N 28°27' W 094°13'510.7
2018-Apr-25 03:30N 28°26' W 094°18'2 2.4
2018-Apr-25 02:43N 28°26' W 094°21'0 0.3
2018-Apr-25 02:30N 28°26' W 094°21'2 1.6
2018-Apr-25 01:26N 28°27' W 094°22'0 0.0
2018-Apr-24 12:12N 28°27' W 094°22'0 0.0
2018-Apr-24 11:43N 28°27' W 094°22'10 0.4
2018-Apr-23 08:30N 28°31' W 094°33'32 3.4
2018-Apr-22 23:03N 28°43' W 093°59'211.0
2018-Apr-22 22:53N 28°43' W 093°57'2210.1
2018-Apr-22 20:43N 28°59' W 093°40'311.5
2018-Apr-22 20:29N 29°01' W 093°40'511.4
2018-Apr-22 20:00N 29°07' W 093°40'510.8
2018-Apr-22 19:29N 29°12' W 093°40'510.1
2018-Apr-22 18:58N 29°18' W 093°39'5 9.9
2018-Apr-22 18:30N 29°22' W 093°40'5 9.9
2018-Apr-22 18:01N 29°27' W 093°40'4 9.0
2018-Apr-22 17:30N 29°31' W 093°42'510.0
2018-Apr-22 17:01N 29°34' W 093°46'5 9.3
2018-Apr-22 16:30N 29°38' W 093°49'4 8.7
2018-Apr-22 16:01N 29°42' W 093°51'4 7.6
2018-Apr-22 15:31N 29°45' W 093°54'4 7.3
2018-Apr-22 15:01N 29°48' W 093°57'3 7.0
2018-Apr-22 14:31N 29°51' W 093°57'3 5.8
2018-Apr-22 14:01N 29°53' W 093°55'3 6.4
2018-Apr-22 13:31N 29°56' W 093°52'3 5.8
2018-Apr-22 13:01N 29°59' W 093°52'3 5.9
2018-Apr-22 12:30N 29°59' W 093°55'2 4.8
2018-Apr-22 12:00N 30°01' W 093°57'1 1.7
2018-Apr-22 11:29N 30°01' W 093°58'0 0.0
2018-Apr-22 11:00N 30°01' W 093°58'0 0.0
2018-Apr-22 10:28N 30°01' W 093°58'0 0.0
2018-Apr-22 09:58N 30°01' W 093°58'0 0.0
2018-Apr-22 09:28N 30°01' W 093°58'0 0.0
2018-Apr-22 08:58N 30°01' W 093°58'0 0.0
2018-Apr-22 08:28N 30°01' W 093°58'0 0.0
2018-Apr-22 07:58N 30°01' W 093°58'0 0.0
2018-Apr-22 07:28N 30°01' W 093°58'0 0.0
2018-Apr-22 06:58N 30°01' W 093°58'0 0.0
2018-Apr-22 06:28N 30°01' W 093°58'0 0.0
2018-Apr-22 05:58N 30°01' W 093°58'0 0.0
2018-Apr-22 05:28N 30°01' W 093°58'0 0.0
2018-Apr-22 04:58N 30°01' W 093°58'0 0.0
2018-Apr-22 04:25N 30°01' W 093°58'0 0.0
2018-Apr-22 03:58N 30°01' W 093°58'0 0.0
2018-Apr-22 03:28N 30°01' W 093°58'0 0.0
2018-Apr-22 02:58N 30°01' W 093°58'0 0.0
2018-Apr-22 02:28N 30°01' W 093°58'0 0.0
2018-Apr-22 01:58N 30°01' W 093°58'0 0.0
2018-Apr-22 01:28N 30°01' W 093°58'0 0.0
2018-Apr-22 00:58N 30°01' W 093°58'0 0.0
2018-Apr-22 00:28N 30°01' W 093°58'0 0.0
2018-Apr-21 23:55N 30°01' W 093°58'0 0.0
2018-Apr-21 23:28N 30°01' W 093°58'0 0.0
2018-Apr-21 22:58N 30°01' W 093°58'0 0.0
2018-Apr-21 22:28N 30°01' W 093°58'0 0.0
2018-Apr-21 21:58N 30°01' W 093°58'0 0.0
2018-Apr-21 21:28N 30°01' W 093°58'0 0.0
2018-Apr-21 20:58N 30°01' W 093°58'0 0.0
2018-Apr-21 20:28N 30°01' W 093°58'0 0.0
2018-Apr-21 19:58N 30°01' W 093°58'0 0.0
2018-Apr-21 19:28N 30°01' W 093°58'0 0.0
2018-Apr-21 18:58N 30°01' W 093°58'0 0.0
2018-Apr-21 18:28N 30°01' W 093°58'0 0.0
2018-Apr-21 17:58N 30°01' W 093°58'0 0.0
2018-Apr-21 17:28N 30°01' W 093°58'0 0.0
2018-Apr-21 16:58N 30°01' W 093°58'0 0.0
2018-Apr-21 16:28N 30°01' W 093°58'0 0.0
2018-Apr-21 15:58N 30°01' W 093°58'0 0.0
2018-Apr-21 15:28N 30°01' W 093°58'0 0.0
2018-Apr-21 14:58N 30°01' W 093°58'0 0.0
2018-Apr-21 14:28N 30°01' W 093°58'0 0.0
2018-Apr-21 13:58N 30°01' W 093°58'0 0.0
2018-Apr-21 13:28N 30°01' W 093°58'0 0.0
2018-Apr-21 12:58N 30°01' W 093°58'0 0.0
2018-Apr-21 12:28N 30°01' W 093°58'0 0.0
2018-Apr-21 11:58N 30°01' W 093°58'0 0.0
2018-Apr-21 11:28N 30°01' W 093°58'0 0.0
2018-Apr-21 10:58N 30°01' W 093°58'0 0.0
2018-Apr-21 10:28N 30°01' W 093°58'0 0.0
2018-Apr-21 09:55N 30°01' W 093°58'0 0.0
2018-Apr-21 09:28N 30°01' W 093°58'0 0.0
2018-Apr-21 08:58N 30°01' W 093°58'0 0.0
2018-Apr-21 08:28N 30°01' W 093°58'0 0.0
2018-Apr-21 07:58N 30°01' W 093°58'0 0.0
2018-Apr-21 07:28N 30°01' W 093°58'0 0.0
2018-Apr-21 06:58N 30°01' W 093°58'0 0.0
2018-Apr-21 06:28N 30°01' W 093°58'0 0.0
2018-Apr-21 05:58N 30°01' W 093°58'0 0.0
2018-Apr-21 05:28N 30°01' W 093°58'0 0.0
2018-Apr-21 04:58N 30°01' W 093°58'0 0.0
2018-Apr-21 04:28N 30°01' W 093°58'0 0.0
2018-Apr-21 03:55N 30°01' W 093°58'0 0.0
2018-Apr-21 03:28N 30°01' W 093°58'0 0.0
2018-Apr-21 02:58N 30°01' W 093°58'0 0.0
2018-Apr-21 02:28N 30°01' W 093°58'0 0.0
2018-Apr-21 01:58N 30°01' W 093°58'0 0.0
2018-Apr-21 01:28N 30°01' W 093°58'0 0.0
2018-Apr-21 00:58N 30°01' W 093°58'0 0.0
2018-Apr-21 00:28N 30°01' W 093°58'0 0.0
2018-Apr-20 23:58N 30°01' W 093°58'0 0.0
2018-Apr-20 23:28N 30°01' W 093°58'0 0.0
2018-Apr-20 22:55N 30°01' W 093°58'0 0.0
2018-Apr-20 22:28N 30°01' W 093°58'0 0.0
2018-Apr-20 21:58N 30°01' W 093°58'0 0.0
2018-Apr-20 21:28N 30°01' W 093°58'0 0.0
2018-Apr-20 20:58N 30°01' W 093°58'0 0.0
2018-Apr-20 20:28N 30°01' W 093°58'0 0.0
2018-Apr-20 19:58N 30°01' W 093°58'0 0.0
2018-Apr-20 19:28N 30°01' W 093°58'0 0.0
2018-Apr-20 18:58N 30°01' W 093°58'0 0.0
2018-Apr-20 18:28N 30°01' W 093°58'0 0.0
2018-Apr-20 17:58N 30°01' W 093°58'0 0.0
2018-Apr-20 17:28N 30°01' W 093°58'0 0.0
2018-Apr-20 16:58N 30°01' W 093°58'0 0.0
2018-Apr-20 16:28N 30°01' W 093°58'0 0.0
2018-Apr-20 15:58N 30°01' W 093°58'0 0.0
2018-Apr-20 15:28N 30°01' W 093°58'0 0.0
2018-Apr-20 14:58N 30°01' W 093°58'0 0.0
2018-Apr-20 14:28N 30°01' W 093°58'0 0.0
2018-Apr-20 13:58N 30°01' W 093°58'0 0.0
2018-Apr-20 13:28N 30°01' W 093°58'0 0.0
2018-Apr-20 12:58N 30°01' W 093°58'0 0.0
2018-Apr-20 12:28N 30°01' W 093°58'0 0.0
2018-Apr-20 11:58N 30°01' W 093°58'0 0.0
2018-Apr-20 11:28N 30°01' W 093°58'0 0.0
2018-Apr-20 10:58N 30°01' W 093°58'0 0.0
2018-Apr-20 10:28N 30°01' W 093°58'0 0.0
2018-Apr-20 09:55N 30°01' W 093°58'0 0.0
2018-Apr-20 09:28N 30°01' W 093°58'0 0.0
2018-Apr-20 08:58N 30°01' W 093°58'0 0.0
2018-Apr-20 08:28N 30°01' W 093°58'0 0.0
2018-Apr-20 07:58N 30°01' W 093°58'0 0.0
2018-Apr-20 07:22N 30°01' W 093°58'0 0.0
2018-Apr-20 06:58N 30°01' W 093°58'0 0.0
2018-Apr-20 06:28N 30°01' W 093°58'0 0.0
2018-Apr-20 05:58N 30°01' W 093°58'0 0.0
2018-Apr-20 05:25N 30°01' W 093°58'0 0.0
2018-Apr-20 04:58N 30°01' W 093°58'0 0.0
2018-Apr-20 04:28N 30°01' W 093°58'0 0.0
2018-Apr-20 03:58N 30°01' W 093°58'0 0.0
2018-Apr-20 03:28N 30°01' W 093°58'0 0.0
2018-Apr-20 02:58N 30°01' W 093°58'0 0.0
2018-Apr-20 02:28N 30°01' W 093°58'0 0.0
2018-Apr-20 01:58N 30°01' W 093°58'0 0.0
2018-Apr-20 01:28N 30°01' W 093°58'0 0.0
2018-Apr-20 00:58N 30°01' W 093°58'0 0.0
2018-Apr-20 00:28N 30°01' W 093°58'0 0.0
2018-Apr-19 23:58N 30°01' W 093°58'0 0.0
2018-Apr-19 23:28N 30°01' W 093°58'0 0.0
2018-Apr-19 22:58N 30°01' W 093°58'0 0.0
2018-Apr-19 22:28N 30°01' W 093°58'0 0.0
2018-Apr-19 21:58N 30°01' W 093°58'0 0.0
2018-Apr-19 21:28N 30°01' W 093°58'0 0.0
2018-Apr-19 20:58N 30°01' W 093°58'0 0.0
2018-Apr-19 20:28N 30°01' W 093°58'0 0.0
2018-Apr-19 19:58N 30°01' W 093°58'0 0.0
2018-Apr-19 19:28N 30°01' W 093°58'0 0.0
2018-Apr-19 18:58N 30°01' W 093°58'0 0.0
2018-Apr-19 18:28N 30°01' W 093°58'0 0.0
2018-Apr-19 17:58N 30°01' W 093°58'0 0.0
2018-Apr-19 17:28N 30°01' W 093°58'0 0.0
2018-Apr-19 16:58N 30°01' W 093°58'0 0.0
2018-Apr-19 16:28N 30°01' W 093°58'0 0.0
2018-Apr-19 15:58N 30°01' W 093°58'0 0.0
2018-Apr-19 15:28N 30°01' W 093°58'0 0.0
2018-Apr-19 14:58N 30°01' W 093°58'0 0.0
2018-Apr-19 14:28N 30°01' W 093°58'0 0.0
2018-Apr-19 13:58N 30°01' W 093°58'0 0.0
2018-Apr-19 13:28N 30°01' W 093°58'0 0.0
2018-Apr-19 12:58N 30°01' W 093°58'0 0.0
2018-Apr-19 12:28N 30°01' W 093°58'0 0.0
2018-Apr-19 11:58N 30°01' W 093°58'0 0.0
2018-Apr-19 11:28N 30°01' W 093°58'0 0.0
2018-Apr-19 10:58N 30°01' W 093°58'0 0.0
2018-Apr-19 10:28N 30°01' W 093°58'0 0.0
2018-Apr-19 09:58N 30°01' W 093°58'0 0.0
2018-Apr-19 09:28N 30°01' W 093°58'0 0.0
2018-Apr-19 08:58N 30°01' W 093°58'0 0.0
2018-Apr-19 08:28N 30°01' W 093°58'0 0.0
2018-Apr-19 07:58N 30°01' W 093°58'0 0.0
2018-Apr-19 07:28N 30°01' W 093°58'0 0.0
2018-Apr-19 06:55N 30°01' W 093°58'0 0.0
2018-Apr-19 06:25N 30°01' W 093°58'0 0.0
2018-Apr-19 05:58N 30°01' W 093°58'0 0.0
2018-Apr-19 05:28N 30°01' W 093°58'0 0.0
2018-Apr-19 04:58N 30°01' W 093°58'0 0.0
2018-Apr-19 04:28N 30°01' W 093°58'0 0.0
2018-Apr-19 03:58N 30°01' W 093°58'0 0.0
2018-Apr-19 03:28N 30°01' W 093°58'0 0.0
2018-Apr-19 02:58N 30°01' W 093°58'0 0.0
2018-Apr-19 02:28N 30°01' W 093°58'0 0.0
2018-Apr-19 01:58N 30°01' W 093°58'0 0.0
2018-Apr-19 01:28N 30°01' W 093°58'0 0.0
2018-Apr-19 00:59N 30°01' W 093°58'0 1.0
2018-Apr-19 00:31N 30°01' W 093°59'1 3.0
2018-Apr-19 00:00N 30°00' W 093°57'3 5.8
2018-Apr-18 23:30N 29°59' W 093°54'3 5.7
2018-Apr-18 23:00N 29°58' W 093°51'3 5.7
2018-Apr-18 22:30N 29°55' W 093°53'4 7.5
2018-Apr-18 22:00N 29°52' W 093°56'3 6.1
2018-Apr-18 21:30N 29°50' W 093°57'4 7.3
2018-Apr-18 21:00N 29°46' W 093°56'4 7.4
2018-Apr-18 20:30N 29°44' W 093°52'3 6.7
2018-Apr-18 20:01N 29°41' W 093°50'5 9.2
2018-Apr-18 19:30N 29°37' W 093°49'510.4
2018-Apr-18 19:00N 29°33' W 093°45'510.7
2018-Apr-18 18:30N 29°29' W 093°40'510.2
2018-Apr-18 18:00N 29°24' W 093°40'3 6.4
2018-Apr-18 17:30N 29°21' W 093°39'2 4.0
2018-Apr-18 17:00N 29°20' W 093°41'1 2.7
2018-Apr-18 16:30N 29°21' W 093°42'0 0.0
2018-Apr-18 16:00N 29°21' W 093°42'0 0.0
2018-Apr-18 15:30N 29°21' W 093°42'0 0.0
2018-Apr-18 15:00N 29°21' W 093°42'0 0.0
2018-Apr-18 14:24N 29°21' W 093°42'0 0.0
2018-Apr-18 13:57N 29°21' W 093°42'0 0.0
2018-Apr-18 13:30N 29°21' W 093°42'0 0.0
2018-Apr-18 12:45N 29°21' W 093°42'0 0.1
2018-Apr-18 12:30N 29°21' W 093°42'0 0.0
2018-Apr-18 11:57N 29°21' W 093°42'0 0.0
2018-Apr-18 11:30N 29°21' W 093°42'0 0.0
2018-Apr-18 11:00N 29°21' W 093°42'0 0.0
2018-Apr-18 10:24N 29°21' W 093°42'0 0.0
2018-Apr-18 10:00N 29°21' W 093°42'0 0.0
2018-Apr-18 09:30N 29°21' W 093°42'0 0.0
2018-Apr-18 09:00N 29°21' W 093°42'0 0.1
2018-Apr-18 08:24N 29°21' W 093°42'0 0.0
2018-Apr-18 07:57N 29°21' W 093°42'0 0.0
2018-Apr-18 07:30N 29°21' W 093°42'0 0.0
2018-Apr-18 06:57N 29°21' W 093°42'0 0.0
2018-Apr-18 06:30N 29°21' W 093°42'0 0.0
2018-Apr-18 05:00N 29°21' W 093°42'0 0.0
2018-Apr-18 04:27N 29°21' W 093°42'0 0.0
2018-Apr-18 04:00N 29°21' W 093°42'0 0.0
2018-Apr-18 03:30N 29°21' W 093°42'0 0.0
2018-Apr-18 02:57N 29°21' W 093°42'0 0.0
2018-Apr-18 02:30N 29°21' W 093°42'0 0.0
2018-Apr-18 02:00N 29°21' W 093°42'0 0.0
2018-Apr-18 01:30N 29°21' W 093°42'0 0.0
2018-Apr-18 01:00N 29°21' W 093°42'0 0.0
2018-Apr-18 00:30N 29°21' W 093°42'0 0.0
2018-Apr-18 00:00N 29°21' W 093°42'0 0.1
2018-Apr-17 23:30N 29°21' W 093°42'0 0.0
2018-Apr-17 23:00N 29°21' W 093°42'0 0.0
2018-Apr-17 22:30N 29°21' W 093°42'0 0.0
2018-Apr-17 22:00N 29°21' W 093°42'0 0.0
2018-Apr-17 21:30N 29°21' W 093°42'0 0.1
2018-Apr-17 21:00N 29°21' W 093°42'0 0.1
2018-Apr-17 20:30N 29°21' W 093°42'0 0.0
2018-Apr-17 20:00N 29°21' W 093°42'0 0.2
2018-Apr-17 19:30N 29°21' W 093°42'0 0.0
2018-Apr-17 19:00N 29°21' W 093°42'0 0.0
2018-Apr-17 18:30N 29°21' W 093°42'0 0.0
2018-Apr-17 17:54N 29°21' W 093°42'0 0.0
2018-Apr-17 17:30N 29°21' W 093°42'0 0.0
2018-Apr-17 17:00N 29°21' W 093°42'0 0.0
2018-Apr-17 16:30N 29°21' W 093°42'0 0.0
2018-Apr-17 16:00N 29°21' W 093°42'0 0.0
2018-Apr-17 15:27N 29°21' W 093°42'0 0.0
2018-Apr-17 15:00N 29°21' W 093°42'0 0.0
2018-Apr-17 14:30N 29°21' W 093°42'0 0.0
2018-Apr-17 14:00N 29°21' W 093°42'0 0.0
2018-Apr-17 13:27N 29°21' W 093°42'0 0.0
2018-Apr-17 12:57N 29°21' W 093°42'0 0.0
2018-Apr-17 12:30N 29°21' W 093°42'0 0.0
2018-Apr-17 12:00N 29°21' W 093°42'0 0.0
2018-Apr-17 11:30N 29°21' W 093°42'0 0.0
2018-Apr-17 11:00N 29°21' W 093°42'0 0.0
2018-Apr-17 10:30N 29°21' W 093°42'0 0.0
2018-Apr-17 10:00N 29°21' W 093°42'0 0.0
2018-Apr-17 09:30N 29°21' W 093°42'0 0.0
2018-Apr-17 09:00N 29°21' W 093°42'0 0.0
2018-Apr-17 08:27N 29°21' W 093°42'0 0.0
2018-Apr-17 08:00N 29°21' W 093°42'0 0.0
2018-Apr-17 07:30N 29°21' W 093°42'0 0.0
2018-Apr-17 07:00N 29°21' W 093°42'0 0.0
2018-Apr-17 06:30N 29°21' W 093°42'0 0.0
2018-Apr-17 06:00N 29°21' W 093°42'0 0.0
2018-Apr-17 05:30N 29°21' W 093°42'0 0.0
2018-Apr-17 05:00N 29°21' W 093°42'0 0.1
2018-Apr-17 04:30N 29°21' W 093°42'0 0.0
2018-Apr-17 04:00N 29°21' W 093°42'0 0.0
2018-Apr-17 03:30N 29°21' W 093°42'0 0.0
2018-Apr-17 02:57N 29°21' W 093°42'0 0.1
2018-Apr-17 02:30N 29°21' W 093°42'0 0.0
2018-Apr-17 02:00N 29°21' W 093°42'0 0.0
2018-Apr-17 01:30N 29°21' W 093°42'0 0.0
2018-Apr-16 22:33N 29°21' W 093°43'0 0.0
2018-Apr-16 20:00N 29°21' W 093°43'0 0.0
2018-Apr-16 19:27N 29°21' W 093°43'0 0.0
2018-Apr-16 18:57N 29°21' W 093°43'0 0.0
2018-Apr-16 18:30N 29°21' W 093°43'0 0.0
2018-Apr-16 17:54N 29°21' W 093°43'0 0.0
2018-Apr-16 17:27N 29°21' W 093°43'0 0.0
2018-Apr-16 16:57N 29°21' W 093°43'0 0.1
2018-Apr-16 14:12N 29°21' W 093°43'0 0.0
2018-Apr-16 13:54N 29°21' W 093°43'0 0.0
2018-Apr-16 13:30N 29°21' W 093°43'0 0.0
2018-Apr-16 13:00N 29°21' W 093°43'0 0.1
2018-Apr-16 12:30N 29°21' W 093°43'0 0.0
2018-Apr-16 11:57N 29°21' W 093°43'0 0.0
2018-Apr-16 11:30N 29°21' W 093°43'0 0.0
2018-Apr-16 11:00N 29°21' W 093°43'0 0.1
2018-Apr-16 10:30N 29°21' W 093°42'0 0.1
2018-Apr-16 10:00N 29°21' W 093°42'0 0.0
2018-Apr-16 09:30N 29°21' W 093°42'0 0.0
2018-Apr-16 09:00N 29°21' W 093°42'0 0.0
2018-Apr-16 08:30N 29°21' W 093°42'0 0.0
2018-Apr-16 08:00N 29°21' W 093°42'0 0.0
2018-Apr-16 07:30N 29°21' W 093°42'0 0.0
2018-Apr-16 07:00N 29°21' W 093°42'0 0.0
2018-Apr-16 06:30N 29°21' W 093°42'0 0.0
2018-Apr-16 05:57N 29°21' W 093°42'0 0.0
2018-Apr-16 05:30N 29°21' W 093°42'0 0.0
2018-Apr-16 05:00N 29°21' W 093°42'0 0.0
2018-Apr-16 04:30N 29°21' W 093°42'0 0.0
2018-Apr-16 04:00N 29°21' W 093°42'0 0.0
2018-Apr-16 03:30N 29°21' W 093°42'0 0.0
2018-Apr-16 03:00N 29°21' W 093°42'0 0.0
2018-Apr-16 02:27N 29°21' W 093°42'0 0.0
2018-Apr-16 02:00N 29°21' W 093°42'0 0.0
2018-Apr-16 01:30N 29°21' W 093°42'0 0.2
2018-Apr-16 00:57N 29°21' W 093°42'1 3.3
2018-Apr-16 00:30N 29°20' W 093°41'5 6.3
2018-Apr-15 23:47N 29°16' W 093°39'3 8.7
2018-Apr-15 23:28N 29°13' W 093°40'  

Dump ship's entire track history